Rover, AR

11:33 PM CDT on July 25, 2016 (GMT -0500)
Bay Ridge Golf Club | | Change Station

Elev 390 ft 35.26 °N, 93.21 °W | Updated 9 minutes ago

Light Rain
Light Rain Mist
77.4 °F
Feels Like 79 °F
N
4.2
Wind Variable Wind from NNE

Today
High -- | Low -- °F
--% Chance of Precip.
Yesterday
High -- | Low -- °F
Precip. -- in
Pressure 29.98 in
Visibility 4.0 miles
Clouds Few 3400 ft
Mostly Cloudy 6000 ft
Overcast 10000 ft
Heat Index 79 °F
Dew Point 73 °F
Humidity 87%
Rainfall 0.10 in
Snow Depth Not available.
6:18 AM 8:21 PM
Waning Gibbous, 59% visible
SPECI KRUE 260424Z AUTO 36013KT 4SM -RA BR FEW034 BKN060 OVC100 24/23 A2998 RMK AO2 PK WND 03034/0405 P0020 T02440233 TSNO
Pressure 29.98 in
Visibility 4.0 miles
Clouds Few 3400 ft
Mostly Cloudy 6000 ft
Overcast 10000 ft
Heat Index 79 °F
Dew Point 73 °F
Humidity 87%
Rainfall 0.10 in
Snow Depth Not available.
6:18 AM 8:21 PM
Waning Gibbous, 59% visible
SPECI KRUE 260424Z AUTO 36013KT 4SM -RA BR FEW034 BKN060 OVC100 24/23 A2998 RMK AO2 PK WND 03034/0405 P0020 T02440233 TSNO

10-Day Weather Forecast

Almanac

Astronomy

Jul. 25, 2016 Rise Set
Actual Time
Civil Twilight
Nautical Twilight
Astronomical Twilight
Moon
Length of Visible Light
Length of Day
Tomorrow will be .
, % of the Moon is Illuminated

Today's Extremes

State Highs State Lows

Community

WunderPhotos

Upload Photos

1,927,534 photos uploaded!

WunderBlog® & News

Nearby

Air Quality

  Air Quality AQ Index Pollutant
Not available.

Snow Depth

Station Depth Elevation

Earthquake Activity

City Distance Mag. Time & Date
Minimum magnitude displayed is 2.5.

Coastal Water Temperatures

Place Temperature

Stations

Nearby Weather Stations

Station Location Temp. Windchill Dew Point Humidity Wind Precip. Elev Updated Type
                   

Watches & Warnings

There are currently no watches in effect.